sensor_id;sensor_type;location;lat;lon;timestamp;P1;durP1;ratioP1;P2;durP2;ratioP2
59922;SDS011;45778;51.142;3.732;2024-01-27T00:01:38;16.67;;;7.22;;
59922;SDS011;45778;51.142;3.732;2024-01-27T00:04:04;13.80;;;7.50;;
59922;SDS011;45778;51.142;3.732;2024-01-27T00:06:30;15.07;;;7.57;;
59922;SDS011;45778;51.142;3.732;2024-01-27T00:08:55;15.05;;;7.60;;
59922;SDS011;45778;51.142;3.732;2024-01-27T00:11:21;16.92;;;8.50;;
59922;SDS011;45778;51.142;3.732;2024-01-27T00:13:49;14.32;;;7.38;;
59922;SDS011;45778;51.142;3.732;2024-01-27T00:16:15;18.55;;;7.28;;
59922;SDS011;45778;51.142;3.732;2024-01-27T00:18:40;15.23;;;7.07;;
59922;SDS011;45778;51.142;3.732;2024-01-27T00:21:06;16.63;;;7.05;;
59922;SDS011;45778;51.142;3.732;2024-01-27T00:23:32;16.45;;;7.68;;
59922;SDS011;45778;51.142;3.732;2024-01-27T00:25:59;12.25;;;7.07;;
59922;SDS011;45778;51.142;3.732;2024-01-27T00:28:25;16.05;;;7.47;;
59922;SDS011;45778;51.142;3.732;2024-01-27T00:30:51;13.90;;;7.45;;
59922;SDS011;45778;51.142;3.732;2024-01-27T00:33:17;18.63;;;7.28;;
59922;SDS011;45778;51.142;3.732;2024-01-27T00:35:42;12.40;;;7.72;;
59922;SDS011;45778;51.142;3.732;2024-01-27T00:38:08;21.70;;;6.70;;
59922;SDS011;45778;51.142;3.732;2024-01-27T00:40:34;16.42;;;7.55;;
59922;SDS011;45778;51.142;3.732;2024-01-27T00:43:02;16.38;;;7.93;;
59922;SDS011;45778;51.142;3.732;2024-01-27T00:45:28;13.32;;;6.22;;
59922;SDS011;45778;51.142;3.732;2024-01-27T00:47:55;21.20;;;7.72;;
59922;SDS011;45778;51.142;3.732;2024-01-27T00:50:21;16.83;;;7.30;;
59922;SDS011;45778;51.142;3.732;2024-01-27T00:52:47;16.73;;;6.32;;
59922;SDS011;45778;51.142;3.732;2024-01-27T00:55:12;16.35;;;7.25;;
59922;SDS011;45778;51.142;3.732;2024-01-27T00:57:38;14.35;;;7.78;;
59922;SDS011;45778;51.142;3.732;2024-01-27T01:00:05;19.13;;;6.90;;
59922;SDS011;45778;51.142;3.732;2024-01-27T01:02:33;20.30;;;7.03;;
59922;SDS011;45778;51.142;3.732;2024-01-27T01:05:00;17.95;;;7.60;;
59922;SDS011;45778;51.142;3.732;2024-01-27T01:07:28;22.27;;;6.80;;
59922;SDS011;45778;51.142;3.732;2024-01-27T01:09:54;19.30;;;6.82;;
59922;SDS011;45778;51.142;3.732;2024-01-27T01:12:20;12.35;;;7.00;;
59922;SDS011;45778;51.142;3.732;2024-01-27T01:14:46;13.70;;;7.20;;
59922;SDS011;45778;51.142;3.732;2024-01-27T01:17:14;14.88;;;7.20;;
59922;SDS011;45778;51.142;3.732;2024-01-27T01:19:40;18.10;;;7.18;;
59922;SDS011;45778;51.142;3.732;2024-01-27T01:22:06;18.92;;;7.80;;
59922;SDS011;45778;51.142;3.732;2024-01-27T01:24:32;17.95;;;7.47;;
59922;SDS011;45778;51.142;3.732;2024-01-27T01:26:58;15.88;;;7.22;;
59922;SDS011;45778;51.142;3.732;2024-01-27T01:29:24;16.05;;;6.40;;
59922;SDS011;45778;51.142;3.732;2024-01-27T01:31:50;14.95;;;6.38;;
59922;SDS011;45778;51.142;3.732;2024-01-27T01:34:15;15.38;;;6.60;;
59922;SDS011;45778;51.142;3.732;2024-01-27T01:36:41;17.08;;;6.65;;
59922;SDS011;45778;51.142;3.732;2024-01-27T01:39:07;14.98;;;7.50;;
59922;SDS011;45778;51.142;3.732;2024-01-27T01:41:35;16.20;;;7.03;;
59922;SDS011;45778;51.142;3.732;2024-01-27T01:44:00;18.70;;;6.85;;
59922;SDS011;45778;51.142;3.732;2024-01-27T01:46:26;19.38;;;8.07;;
59922;SDS011;45778;51.142;3.732;2024-01-27T01:48:52;22.58;;;8.70;;
59922;SDS011;45778;51.142;3.732;2024-01-27T01:51:18;16.92;;;9.18;;
59922;SDS011;45778;51.142;3.732;2024-01-27T01:53:48;21.27;;;7.53;;
59922;SDS011;45778;51.142;3.732;2024-01-27T01:56:14;23.83;;;8.00;;
59922;SDS011;45778;51.142;3.732;2024-01-27T01:58:41;14.07;;;7.10;;
59922;SDS011;45778;51.142;3.732;2024-01-27T02:01:07;15.52;;;7.45;;
59922;SDS011;45778;51.142;3.732;2024-01-27T02:03:33;17.95;;;8.50;;
59922;SDS011;45778;51.142;3.732;2024-01-27T02:05:58;18.88;;;6.90;;
59922;SDS011;45778;51.142;3.732;2024-01-27T02:08:24;19.73;;;7.45;;
59922;SDS011;45778;51.142;3.732;2024-01-27T02:10:50;18.02;;;8.13;;
59922;SDS011;45778;51.142;3.732;2024-01-27T02:13:19;18.15;;;8.20;;
59922;SDS011;45778;51.142;3.732;2024-01-27T02:15:49;12.90;;;7.40;;
59922;SDS011;45778;51.142;3.732;2024-01-27T02:18:15;20.45;;;7.50;;
59922;SDS011;45778;51.142;3.732;2024-01-27T02:20:42;15.07;;;7.10;;
59922;SDS011;45778;51.142;3.732;2024-01-27T02:23:08;20.67;;;8.52;;
59922;SDS011;45778;51.142;3.732;2024-01-27T02:25:34;19.23;;;8.05;;
59922;SDS011;45778;51.142;3.732;2024-01-27T02:28:00;13.90;;;7.72;;
59922;SDS011;45778;51.142;3.732;2024-01-27T02:30:28;14.50;;;7.68;;
59922;SDS011;45778;51.142;3.732;2024-01-27T02:32:55;15.05;;;6.68;;
59922;SDS011;45778;51.142;3.732;2024-01-27T02:35:22;27.70;;;8.43;;
59922;SDS011;45778;51.142;3.732;2024-01-27T02:37:48;23.73;;;7.75;;
59922;SDS011;45778;51.142;3.732;2024-01-27T02:40:13;21.60;;;9.23;;
59922;SDS011;45778;51.142;3.732;2024-01-27T02:42:39;19.88;;;8.05;;
59922;SDS011;45778;51.142;3.732;2024-01-27T02:45:09;18.75;;;7.75;;
59922;SDS011;45778;51.142;3.732;2024-01-27T02:47:36;18.95;;;7.72;;
59922;SDS011;45778;51.142;3.732;2024-01-27T02:50:02;22.05;;;8.55;;
59922;SDS011;45778;51.142;3.732;2024-01-27T02:52:28;15.07;;;7.45;;
59922;SDS011;45778;51.142;3.732;2024-01-27T02:54:55;21.75;;;7.50;;
59922;SDS011;45778;51.142;3.732;2024-01-27T02:57:21;23.73;;;8.18;;
59922;SDS011;45778;51.142;3.732;2024-01-27T02:59:49;15.73;;;8.13;;
59922;SDS011;45778;51.142;3.732;2024-01-27T03:02:15;23.20;;;7.57;;
59922;SDS011;45778;51.142;3.732;2024-01-27T03:04:41;19.55;;;8.05;;
59922;SDS011;45778;51.142;3.732;2024-01-27T03:07:07;18.05;;;8.45;;
59922;SDS011;45778;51.142;3.732;2024-01-27T03:09:32;15.85;;;7.40;;
59922;SDS011;45778;51.142;3.732;2024-01-27T03:11:58;26.63;;;7.57;;
59922;SDS011;45778;51.142;3.732;2024-01-27T03:14:24;18.85;;;7.13;;
59922;SDS011;45778;51.142;3.732;2024-01-27T03:16:50;13.73;;;8.32;;
59922;SDS011;45778;51.142;3.732;2024-01-27T03:19:16;23.27;;;8.23;;
59922;SDS011;45778;51.142;3.732;2024-01-27T03:21:45;18.63;;;7.22;;
59922;SDS011;45778;51.142;3.732;2024-01-27T03:24:10;21.50;;;8.27;;
59922;SDS011;45778;51.142;3.732;2024-01-27T03:26:36;20.50;;;8.23;;
59922;SDS011;45778;51.142;3.732;2024-01-27T03:29:02;15.70;;;7.10;;
59922;SDS011;45778;51.142;3.732;2024-01-27T03:31:31;16.30;;;7.78;;
59922;SDS011;45778;51.142;3.732;2024-01-27T03:34:00;20.38;;;8.02;;
59922;SDS011;45778;51.142;3.732;2024-01-27T03:36:27;17.10;;;8.00;;
59922;SDS011;45778;51.142;3.732;2024-01-27T03:38:53;17.33;;;8.25;;
59922;SDS011;45778;51.142;3.732;2024-01-27T03:41:20;20.17;;;8.23;;
59922;SDS011;45778;51.142;3.732;2024-01-27T03:43:46;27.48;;;9.35;;
59922;SDS011;45778;51.142;3.732;2024-01-27T03:46:12;17.27;;;8.13;;
59922;SDS011;45778;51.142;3.732;2024-01-27T03:48:38;20.98;;;8.13;;
59922;SDS011;45778;51.142;3.732;2024-01-27T03:51:03;14.68;;;7.10;;
59922;SDS011;45778;51.142;3.732;2024-01-27T03:53:29;17.50;;;7.82;;
59922;SDS011;45778;51.142;3.732;2024-01-27T03:55:55;20.85;;;7.90;;
59922;SDS011;45778;51.142;3.732;2024-01-27T03:58:23;18.20;;;8.18;;
59922;SDS011;45778;51.142;3.732;2024-01-27T04:00:49;19.88;;;7.40;;
59922;SDS011;45778;51.142;3.732;2024-01-27T04:03:15;22.33;;;7.60;;
59922;SDS011;45778;51.142;3.732;2024-01-27T04:05:40;17.98;;;8.02;;
59922;SDS011;45778;51.142;3.732;2024-01-27T04:08:06;23.15;;;7.80;;
59922;SDS011;45778;51.142;3.732;2024-01-27T04:10:33;16.45;;;7.30;;
59922;SDS011;45778;51.142;3.732;2024-01-27T04:12:59;24.70;;;8.18;;
59922;SDS011;45778;51.142;3.732;2024-01-27T04:15:25;19.23;;;7.68;;
59922;SDS011;45778;51.142;3.732;2024-01-27T04:17:50;17.98;;;8.13;;
59922;SDS011;45778;51.142;3.732;2024-01-27T04:20:16;23.95;;;8.23;;
59922;SDS011;45778;51.142;3.732;2024-01-27T04:22:42;23.10;;;8.77;;
59922;SDS011;45778;51.142;3.732;2024-01-27T04:25:07;19.92;;;8.30;;
59922;SDS011;45778;51.142;3.732;2024-01-27T04:27:36;20.45;;;8.77;;
59922;SDS011;45778;51.142;3.732;2024-01-27T04:30:06;17.10;;;6.97;;
59922;SDS011;45778;51.142;3.732;2024-01-27T04:32:32;15.60;;;8.38;;
59922;SDS011;45778;51.142;3.732;2024-01-27T04:34:58;17.77;;;7.60;;
59922;SDS011;45778;51.142;3.732;2024-01-27T04:37:23;15.82;;;7.13;;
59922;SDS011;45778;51.142;3.732;2024-01-27T04:39:49;21.00;;;7.32;;
59922;SDS011;45778;51.142;3.732;2024-01-27T04:42:15;15.55;;;7.65;;
59922;SDS011;45778;51.142;3.732;2024-01-27T04:44:41;16.75;;;8.30;;
59922;SDS011;45778;51.142;3.732;2024-01-27T04:47:07;14.77;;;8.40;;
59922;SDS011;45778;51.142;3.732;2024-01-27T04:49:33;24.67;;;7.88;;
59922;SDS011;45778;51.142;3.732;2024-01-27T04:51:58;13.95;;;6.68;;
59922;SDS011;45778;51.142;3.732;2024-01-27T04:54:25;20.60;;;8.05;;
59922;SDS011;45778;51.142;3.732;2024-01-27T04:56:51;19.65;;;7.72;;
59922;SDS011;45778;51.142;3.732;2024-01-27T04:59:17;19.45;;;7.35;;
59922;SDS011;45778;51.142;3.732;2024-01-27T05:01:46;17.35;;;8.15;;
59922;SDS011;45778;51.142;3.732;2024-01-27T05:04:12;16.83;;;7.60;;
59922;SDS011;45778;51.142;3.732;2024-01-27T05:06:38;18.73;;;8.30;;
59922;SDS011;45778;51.142;3.732;2024-01-27T05:09:10;15.88;;;8.07;;
59922;SDS011;45778;51.142;3.732;2024-01-27T05:11:37;20.20;;;7.28;;
59922;SDS011;45778;51.142;3.732;2024-01-27T05:14:03;19.48;;;8.57;;
59922;SDS011;45778;51.142;3.732;2024-01-27T05:16:29;22.88;;;8.98;;
59922;SDS011;45778;51.142;3.732;2024-01-27T05:18:55;20.10;;;8.73;;
59922;SDS011;45778;51.142;3.732;2024-01-27T05:21:21;18.33;;;8.25;;
59922;SDS011;45778;51.142;3.732;2024-01-27T05:23:47;23.23;;;8.93;;
59922;SDS011;45778;51.142;3.732;2024-01-27T05:26:12;24.50;;;9.25;;
59922;SDS011;45778;51.142;3.732;2024-01-27T05:28:38;18.13;;;9.73;;
59922;SDS011;45778;51.142;3.732;2024-01-27T05:31:09;23.10;;;8.25;;
59922;SDS011;45778;51.142;3.732;2024-01-27T05:33:35;15.93;;;7.97;;
59922;SDS011;45778;51.142;3.732;2024-01-27T05:36:01;22.80;;;8.63;;
59922;SDS011;45778;51.142;3.732;2024-01-27T05:38:27;21.75;;;9.52;;
59922;SDS011;45778;51.142;3.732;2024-01-27T05:40:55;21.58;;;9.07;;
59922;SDS011;45778;51.142;3.732;2024-01-27T05:43:20;16.50;;;8.77;;
59922;SDS011;45778;51.142;3.732;2024-01-27T05:45:47;17.48;;;8.05;;
59922;SDS011;45778;51.142;3.732;2024-01-27T05:48:14;19.70;;;9.30;;
59922;SDS011;45778;51.142;3.732;2024-01-27T05:50:41;19.88;;;8.40;;
59922;SDS011;45778;51.142;3.732;2024-01-27T05:53:08;17.05;;;7.93;;
59922;SDS011;45778;51.142;3.732;2024-01-27T05:55:34;18.33;;;7.45;;
59922;SDS011;45778;51.142;3.732;2024-01-27T05:57:59;25.27;;;7.95;;
59922;SDS011;45778;51.142;3.732;2024-01-27T06:00:25;23.98;;;8.57;;
59922;SDS011;45778;51.142;3.732;2024-01-27T06:02:51;22.73;;;7.93;;
59922;SDS011;45778;51.142;3.732;2024-01-27T06:05:16;23.33;;;7.88;;
59922;SDS011;45778;51.142;3.732;2024-01-27T06:07:42;19.75;;;7.90;;
59922;SDS011;45778;51.142;3.732;2024-01-27T06:10:08;22.83;;;8.40;;
59922;SDS011;45778;51.142;3.732;2024-01-27T06:12:34;19.85;;;8.45;;
59922;SDS011;45778;51.142;3.732;2024-01-27T06:15:01;24.80;;;9.93;;
59922;SDS011;45778;51.142;3.732;2024-01-27T06:17:28;21.95;;;7.93;;
59922;SDS011;45778;51.142;3.732;2024-01-27T06:19:53;17.65;;;8.77;;
59922;SDS011;45778;51.142;3.732;2024-01-27T06:22:19;21.30;;;8.25;;
59922;SDS011;45778;51.142;3.732;2024-01-27T06:24:45;23.17;;;8.15;;
59922;SDS011;45778;51.142;3.732;2024-01-27T06:27:11;18.48;;;8.48;;
59922;SDS011;45778;51.142;3.732;2024-01-27T06:29:36;17.55;;;7.93;;
59922;SDS011;45778;51.142;3.732;2024-01-27T06:32:02;23.75;;;8.85;;
59922;SDS011;45778;51.142;3.732;2024-01-27T06:34:29;18.70;;;8.38;;
59922;SDS011;45778;51.142;3.732;2024-01-27T06:36:54;12.80;;;7.85;;
59922;SDS011;45778;51.142;3.732;2024-01-27T06:39:20;14.40;;;7.90;;
59922;SDS011;45778;51.142;3.732;2024-01-27T06:41:48;19.10;;;7.68;;
59922;SDS011;45778;51.142;3.732;2024-01-27T06:44:14;18.13;;;7.32;;
59922;SDS011;45778;51.142;3.732;2024-01-27T06:46:39;25.02;;;8.13;;
59922;SDS011;45778;51.142;3.732;2024-01-27T06:49:05;23.05;;;8.35;;
59922;SDS011;45778;51.142;3.732;2024-01-27T06:51:30;31.90;;;8.82;;
59922;SDS011;45778;51.142;3.732;2024-01-27T06:53:56;26.95;;;8.68;;
59922;SDS011;45778;51.142;3.732;2024-01-27T06:56:22;20.27;;;7.40;;
59922;SDS011;45778;51.142;3.732;2024-01-27T06:58:47;15.18;;;7.78;;
59922;SDS011;45778;51.142;3.732;2024-01-27T07:01:13;18.25;;;8.25;;
59922;SDS011;45778;51.142;3.732;2024-01-27T07:03:39;23.15;;;8.27;;
59922;SDS011;45778;51.142;3.732;2024-01-27T07:06:05;17.85;;;7.97;;
59922;SDS011;45778;51.142;3.732;2024-01-27T07:08:31;20.13;;;8.43;;
59922;SDS011;45778;51.142;3.732;2024-01-27T07:10:57;21.92;;;8.20;;
59922;SDS011;45778;51.142;3.732;2024-01-27T07:13:23;13.93;;;8.23;;
59922;SDS011;45778;51.142;3.732;2024-01-27T07:15:49;20.48;;;8.82;;
59922;SDS011;45778;51.142;3.732;2024-01-27T07:18:14;15.38;;;8.10;;
59922;SDS011;45778;51.142;3.732;2024-01-27T07:20:42;24.75;;;9.18;;
59922;SDS011;45778;51.142;3.732;2024-01-27T07:23:08;22.33;;;8.65;;
59922;SDS011;45778;51.142;3.732;2024-01-27T07:25:33;23.38;;;9.32;;
59922;SDS011;45778;51.142;3.732;2024-01-27T07:27:59;19.35;;;8.55;;
59922;SDS011;45778;51.142;3.732;2024-01-27T07:30:25;23.08;;;9.10;;
59922;SDS011;45778;51.142;3.732;2024-01-27T07:32:50;18.90;;;8.55;;
59922;SDS011;45778;51.142;3.732;2024-01-27T07:35:16;19.52;;;8.15;;
59922;SDS011;45778;51.142;3.732;2024-01-27T07:37:42;26.80;;;9.07;;
59922;SDS011;45778;51.142;3.732;2024-01-27T07:40:08;27.67;;;9.30;;
59922;SDS011;45778;51.142;3.732;2024-01-27T07:42:34;23.08;;;8.80;;
59922;SDS011;45778;51.142;3.732;2024-01-27T07:45:00;16.98;;;8.23;;
59922;SDS011;45778;51.142;3.732;2024-01-27T07:47:26;18.17;;;8.85;;
59922;SDS011;45778;51.142;3.732;2024-01-27T07:49:52;16.15;;;8.27;;
59922;SDS011;45778;51.142;3.732;2024-01-27T07:52:18;22.20;;;9.07;;
59922;SDS011;45778;51.142;3.732;2024-01-27T07:54:44;17.88;;;9.10;;
59922;SDS011;45778;51.142;3.732;2024-01-27T07:57:10;19.60;;;8.45;;
59922;SDS011;45778;51.142;3.732;2024-01-27T07:59:37;17.30;;;8.73;;
59922;SDS011;45778;51.142;3.732;2024-01-27T08:02:03;28.38;;;9.73;;
59922;SDS011;45778;51.142;3.732;2024-01-27T08:04:30;21.70;;;8.43;;
59922;SDS011;45778;51.142;3.732;2024-01-27T08:06:55;24.85;;;9.35;;
59922;SDS011;45778;51.142;3.732;2024-01-27T08:09:21;21.90;;;9.32;;
59922;SDS011;45778;51.142;3.732;2024-01-27T08:11:47;19.17;;;8.65;;
59922;SDS011;45778;51.142;3.732;2024-01-27T08:14:17;22.30;;;10.05;;
59922;SDS011;45778;51.142;3.732;2024-01-27T08:16:43;23.25;;;9.07;;
59922;SDS011;45778;51.142;3.732;2024-01-27T08:19:09;22.45;;;9.15;;
59922;SDS011;45778;51.142;3.732;2024-01-27T08:21:35;20.50;;;8.90;;
59922;SDS011;45778;51.142;3.732;2024-01-27T08:24:00;16.48;;;8.35;;
59922;SDS011;45778;51.142;3.732;2024-01-27T08:26:26;18.83;;;9.05;;
59922;SDS011;45778;51.142;3.732;2024-01-27T08:28:51;23.85;;;8.60;;
59922;SDS011;45778;51.142;3.732;2024-01-27T08:31:19;18.33;;;7.25;;
59922;SDS011;45778;51.142;3.732;2024-01-27T08:33:45;25.88;;;8.30;;
59922;SDS011;45778;51.142;3.732;2024-01-27T08:36:14;19.77;;;8.70;;
59922;SDS011;45778;51.142;3.732;2024-01-27T08:38:40;30.95;;;9.07;;
59922;SDS011;45778;51.142;3.732;2024-01-27T08:41:05;18.27;;;8.60;;
59922;SDS011;45778;51.142;3.732;2024-01-27T08:43:34;16.88;;;8.68;;
59922;SDS011;45778;51.142;3.732;2024-01-27T08:46:00;25.63;;;8.95;;
59922;SDS011;45778;51.142;3.732;2024-01-27T08:48:25;14.60;;;7.93;;
59922;SDS011;45778;51.142;3.732;2024-01-27T08:50:51;21.33;;;8.30;;
59922;SDS011;45778;51.142;3.732;2024-01-27T08:53:17;22.45;;;8.50;;
59922;SDS011;45778;51.142;3.732;2024-01-27T08:55:42;22.60;;;9.52;;
59922;SDS011;45778;51.142;3.732;2024-01-27T08:58:08;15.40;;;8.25;;
59922;SDS011;45778;51.142;3.732;2024-01-27T09:00:33;16.50;;;7.65;;
59922;SDS011;45778;51.142;3.732;2024-01-27T09:02:59;17.92;;;8.07;;
59922;SDS011;45778;51.142;3.732;2024-01-27T09:05:26;29.45;;;8.75;;
59922;SDS011;45778;51.142;3.732;2024-01-27T09:07:53;19.45;;;8.68;;
59922;SDS011;45778;51.142;3.732;2024-01-27T09:10:18;23.25;;;7.47;;
59922;SDS011;45778;51.142;3.732;2024-01-27T09:12:44;28.27;;;8.02;;
59922;SDS011;45778;51.142;3.732;2024-01-27T09:15:10;21.45;;;7.22;;
59922;SDS011;45778;51.142;3.732;2024-01-27T09:17:35;21.65;;;7.35;;
59922;SDS011;45778;51.142;3.732;2024-01-27T09:20:01;26.33;;;9.50;;
59922;SDS011;45778;51.142;3.732;2024-01-27T09:22:27;18.38;;;7.20;;
59922;SDS011;45778;51.142;3.732;2024-01-27T09:24:53;19.27;;;7.25;;
59922;SDS011;45778;51.142;3.732;2024-01-27T09:27:20;24.77;;;7.00;;
59922;SDS011;45778;51.142;3.732;2024-01-27T09:29:45;14.15;;;7.00;;
59922;SDS011;45778;51.142;3.732;2024-01-27T09:32:11;24.17;;;7.82;;
59922;SDS011;45778;51.142;3.732;2024-01-27T09:34:37;19.02;;;6.75;;
59922;SDS011;45778;51.142;3.732;2024-01-27T09:37:03;25.27;;;8.15;;
59922;SDS011;45778;51.142;3.732;2024-01-27T09:39:29;22.10;;;7.30;;
59922;SDS011;45778;51.142;3.732;2024-01-27T09:41:55;24.02;;;7.25;;
59922;SDS011;45778;51.142;3.732;2024-01-27T09:44:22;17.08;;;7.15;;
59922;SDS011;45778;51.142;3.732;2024-01-27T09:46:49;18.13;;;7.45;;
59922;SDS011;45778;51.142;3.732;2024-01-27T09:49:15;27.20;;;8.05;;
59922;SDS011;45778;51.142;3.732;2024-01-27T09:51:41;19.27;;;6.85;;
59922;SDS011;45778;51.142;3.732;2024-01-27T09:54:06;21.35;;;6.97;;
59922;SDS011;45778;51.142;3.732;2024-01-27T09:56:32;20.45;;;7.15;;
59922;SDS011;45778;51.142;3.732;2024-01-27T09:58:59;17.83;;;6.68;;
59922;SDS011;45778;51.142;3.732;2024-01-27T10:01:25;18.58;;;6.80;;
59922;SDS011;45778;51.142;3.732;2024-01-27T10:03:53;14.80;;;6.95;;
59922;SDS011;45778;51.142;3.732;2024-01-27T10:06:20;20.23;;;7.10;;
59922;SDS011;45778;51.142;3.732;2024-01-27T10:08:51;21.13;;;6.45;;
59922;SDS011;45778;51.142;3.732;2024-01-27T10:11:18;19.93;;;6.97;;
59922;SDS011;45778;51.142;3.732;2024-01-27T10:13:53;14.70;;;5.57;;
59922;SDS011;45778;51.142;3.732;2024-01-27T10:16:20;13.73;;;6.35;;
59922;SDS011;45778;51.142;3.732;2024-01-27T10:18:45;10.43;;;5.50;;
59922;SDS011;45778;51.142;3.732;2024-01-27T10:21:12;11.30;;;5.07;;
59922;SDS011;45778;51.142;3.732;2024-01-27T10:23:39;20.00;;;6.68;;
59922;SDS011;45778;51.142;3.732;2024-01-27T10:26:05;10.13;;;5.43;;
59922;SDS011;45778;51.142;3.732;2024-01-27T10:28:34;12.88;;;5.35;;
59922;SDS011;45778;51.142;3.732;2024-01-27T10:33:35;14.00;;;4.90;;
59922;SDS011;45778;51.142;3.732;2024-01-27T10:36:01;13.77;;;5.50;;
59922;SDS011;45778;51.142;3.732;2024-01-27T10:38:34;12.65;;;5.13;;
59922;SDS011;45778;51.142;3.732;2024-01-27T10:41:00;22.58;;;5.85;;
59922;SDS011;45778;51.142;3.732;2024-01-27T10:43:29;11.93;;;4.70;;
59922;SDS011;45778;51.142;3.732;2024-01-27T10:45:56;11.73;;;4.55;;
59922;SDS011;45778;51.142;3.732;2024-01-27T10:48:23;17.20;;;5.38;;
59922;SDS011;45778;51.142;3.732;2024-01-27T10:50:51;11.77;;;4.18;;
59922;SDS011;45778;51.142;3.732;2024-01-27T10:53:23;14.48;;;4.85;;
59922;SDS011;45778;51.142;3.732;2024-01-27T10:56:00;11.38;;;4.93;;
59922;SDS011;45778;51.142;3.732;2024-01-27T10:58:29;18.77;;;5.10;;
59922;SDS011;45778;51.142;3.732;2024-01-27T11:00:56;9.00;;;3.85;;
59922;SDS011;45778;51.142;3.732;2024-01-27T11:03:24;9.80;;;3.45;;
59922;SDS011;45778;51.142;3.732;2024-01-27T11:05:52;13.63;;;4.13;;
59922;SDS011;45778;51.142;3.732;2024-01-27T11:08:19;16.30;;;4.25;;
59922;SDS011;45778;51.142;3.732;2024-01-27T11:10:49;11.75;;;3.28;;
59922;SDS011;45778;51.142;3.732;2024-01-27T11:13:15;12.88;;;3.45;;
59922;SDS011;45778;51.142;3.732;2024-01-27T11:15:50;15.02;;;4.57;;
59922;SDS011;45778;51.142;3.732;2024-01-27T11:18:19;13.35;;;3.83;;
59922;SDS011;45778;51.142;3.732;2024-01-27T11:20:45;13.32;;;3.78;;
59922;SDS011;45778;51.142;3.732;2024-01-27T11:23:12;13.50;;;3.85;;
59922;SDS011;45778;51.142;3.732;2024-01-27T11:25:39;12.98;;;3.03;;
59922;SDS011;45778;51.142;3.732;2024-01-27T11:28:15;20.48;;;4.57;;
59922;SDS011;45778;51.142;3.732;2024-01-27T11:30:45;12.13;;;3.80;;
59922;SDS011;45778;51.142;3.732;2024-01-27T11:33:14;15.50;;;3.42;;
59922;SDS011;45778;51.142;3.732;2024-01-27T11:35:42;13.95;;;3.22;;
59922;SDS011;45778;51.142;3.732;2024-01-27T11:38:07;11.00;;;2.90;;
59922;SDS011;45778;51.142;3.732;2024-01-27T11:40:33;11.23;;;3.70;;
59922;SDS011;45778;51.142;3.732;2024-01-27T11:43:09;9.57;;;2.90;;
59922;SDS011;45778;51.142;3.732;2024-01-27T11:45:39;10.07;;;3.08;;
59922;SDS011;45778;51.142;3.732;2024-01-27T11:48:04;10.75;;;3.50;;
59922;SDS011;45778;51.142;3.732;2024-01-27T11:50:31;15.43;;;2.42;;
59922;SDS011;45778;51.142;3.732;2024-01-27T11:52:57;13.63;;;2.67;;
59922;SDS011;45778;51.142;3.732;2024-01-27T11:55:22;11.07;;;2.60;;
59922;SDS011;45778;51.142;3.732;2024-01-27T11:57:48;10.43;;;3.38;;
59922;SDS011;45778;51.142;3.732;2024-01-27T12:00:14;13.20;;;2.05;;
59922;SDS011;45778;51.142;3.732;2024-01-27T12:02:40;12.85;;;3.15;;
59922;SDS011;45778;51.142;3.732;2024-01-27T12:05:06;14.82;;;3.05;;
59922;SDS011;45778;51.142;3.732;2024-01-27T12:07:33;11.25;;;2.53;;
59922;SDS011;45778;51.142;3.732;2024-01-27T12:09:59;10.45;;;2.47;;
59922;SDS011;45778;51.142;3.732;2024-01-27T12:12:25;9.73;;;2.33;;
59922;SDS011;45778;51.142;3.732;2024-01-27T12:14:51;9.52;;;2.05;;
59922;SDS011;45778;51.142;3.732;2024-01-27T12:17:17;10.93;;;3.22;;
59922;SDS011;45778;51.142;3.732;2024-01-27T12:19:47;10.98;;;1.80;;
59922;SDS011;45778;51.142;3.732;2024-01-27T12:22:26;12.65;;;2.65;;
59922;SDS011;45778;51.142;3.732;2024-01-27T12:25:07;9.57;;;2.60;;
59922;SDS011;45778;51.142;3.732;2024-01-27T12:27:34;8.52;;;2.40;;
59922;SDS011;45778;51.142;3.732;2024-01-27T12:30:00;16.30;;;3.13;;
59922;SDS011;45778;51.142;3.732;2024-01-27T12:32:27;10.00;;;2.28;;
59922;SDS011;45778;51.142;3.732;2024-01-27T12:34:52;7.57;;;1.92;;
59922;SDS011;45778;51.142;3.732;2024-01-27T12:37:21;10.85;;;2.55;;
59922;SDS011;45778;51.142;3.732;2024-01-27T12:39:47;11.27;;;2.95;;
59922;SDS011;45778;51.142;3.732;2024-01-27T12:42:15;16.48;;;2.38;;
59922;SDS011;45778;51.142;3.732;2024-01-27T12:44:42;12.27;;;2.78;;
59922;SDS011;45778;51.142;3.732;2024-01-27T12:47:11;10.05;;;2.08;;
59922;SDS011;45778;51.142;3.732;2024-01-27T12:49:38;8.25;;;2.03;;
59922;SDS011;45778;51.142;3.732;2024-01-27T12:52:04;10.43;;;2.35;;
59922;SDS011;45778;51.142;3.732;2024-01-27T12:54:30;10.60;;;2.33;;
59922;SDS011;45778;51.142;3.732;2024-01-27T12:56:56;12.18;;;2.17;;
59922;SDS011;45778;51.142;3.732;2024-01-27T12:59:22;9.52;;;2.45;;
59922;SDS011;45778;51.142;3.732;2024-01-27T13:01:48;11.82;;;1.98;;
59922;SDS011;45778;51.142;3.732;2024-01-27T13:04:14;9.90;;;1.90;;
59922;SDS011;45778;51.142;3.732;2024-01-27T13:06:40;8.75;;;1.98;;
59922;SDS011;45778;51.142;3.732;2024-01-27T13:09:07;11.27;;;2.13;;
59922;SDS011;45778;51.142;3.732;2024-01-27T13:11:36;10.45;;;2.90;;
59922;SDS011;45778;51.142;3.732;2024-01-27T13:14:02;11.18;;;2.10;;
59922;SDS011;45778;51.142;3.732;2024-01-27T13:16:28;10.18;;;2.15;;
59922;SDS011;45778;51.142;3.732;2024-01-27T13:18:53;10.93;;;3.13;;
59922;SDS011;45778;51.142;3.732;2024-01-27T13:21:19;9.60;;;1.73;;
59922;SDS011;45778;51.142;3.732;2024-01-27T13:23:44;7.22;;;1.55;;
59922;SDS011;45778;51.142;3.732;2024-01-27T13:26:11;7.13;;;2.30;;
59922;SDS011;45778;51.142;3.732;2024-01-27T13:28:37;6.47;;;1.95;;
59922;SDS011;45778;51.142;3.732;2024-01-27T13:31:03;12.90;;;2.58;;
59922;SDS011;45778;51.142;3.732;2024-01-27T13:33:29;8.95;;;2.08;;
59922;SDS011;45778;51.142;3.732;2024-01-27T13:35:55;15.90;;;2.55;;
59922;SDS011;45778;51.142;3.732;2024-01-27T13:38:21;6.20;;;2.05;;
59922;SDS011;45778;51.142;3.732;2024-01-27T13:40:49;14.93;;;2.55;;
59922;SDS011;45778;51.142;3.732;2024-01-27T13:43:15;11.10;;;2.33;;
59922;SDS011;45778;51.142;3.732;2024-01-27T13:45:41;11.13;;;2.42;;
59922;SDS011;45778;51.142;3.732;2024-01-27T13:48:07;12.25;;;2.78;;
59922;SDS011;45778;51.142;3.732;2024-01-27T13:50:33;9.88;;;2.28;;
59922;SDS011;45778;51.142;3.732;2024-01-27T13:52:58;10.65;;;2.35;;
59922;SDS011;45778;51.142;3.732;2024-01-27T13:55:24;12.80;;;3.72;;
59922;SDS011;45778;51.142;3.732;2024-01-27T13:57:50;11.65;;;2.78;;
59922;SDS011;45778;51.142;3.732;2024-01-27T14:00:16;12.98;;;2.80;;
59922;SDS011;45778;51.142;3.732;2024-01-27T14:02:42;6.70;;;2.30;;
59922;SDS011;45778;51.142;3.732;2024-01-27T14:05:08;9.70;;;2.65;;
59922;SDS011;45778;51.142;3.732;2024-01-27T14:07:34;10.10;;;2.65;;
59922;SDS011;45778;51.142;3.732;2024-01-27T14:10:00;7.28;;;1.95;;
59922;SDS011;45778;51.142;3.732;2024-01-27T14:12:27;5.57;;;2.05;;
59922;SDS011;45778;51.142;3.732;2024-01-27T14:14:52;9.65;;;1.70;;
59922;SDS011;45778;51.142;3.732;2024-01-27T14:17:19;9.35;;;1.75;;
59922;SDS011;45778;51.142;3.732;2024-01-27T14:19:46;10.77;;;2.42;;
59922;SDS011;45778;51.142;3.732;2024-01-27T14:22:12;9.60;;;2.53;;
59922;SDS011;45778;51.142;3.732;2024-01-27T14:24:39;6.82;;;1.73;;
59922;SDS011;45778;51.142;3.732;2024-01-27T14:27:06;7.25;;;1.58;;
59922;SDS011;45778;51.142;3.732;2024-01-27T14:29:34;8.65;;;2.03;;
59922;SDS011;45778;51.142;3.732;2024-01-27T14:32:00;7.72;;;2.20;;
59922;SDS011;45778;51.142;3.732;2024-01-27T14:34:27;8.80;;;2.15;;